sensor_id;sensor_type;location;lat;lon;timestamp;P1;durP1;ratioP1;P2;durP2;ratioP2
71351;SDS011;59159;51.652;4.864;2023-02-05T00:02:00;6.88;;;3.00;;
71351;SDS011;59159;51.652;4.864;2023-02-05T00:04:26;7.50;;;2.55;;
71351;SDS011;59159;51.652;4.864;2023-02-05T00:06:52;7.23;;;2.60;;
71351;SDS011;59159;51.652;4.864;2023-02-05T00:09:18;6.82;;;2.28;;
71351;SDS011;59159;51.652;4.864;2023-02-05T00:11:44;6.65;;;2.40;;
71351;SDS011;59159;51.652;4.864;2023-02-05T00:14:10;11.27;;;3.13;;
71351;SDS011;59159;51.652;4.864;2023-02-05T00:16:36;6.73;;;2.80;;
71351;SDS011;59159;51.652;4.864;2023-02-05T00:19:02;7.68;;;2.63;;
71351;SDS011;59159;51.652;4.864;2023-02-05T00:21:28;6.97;;;2.70;;
71351;SDS011;59159;51.652;4.864;2023-02-05T00:23:54;7.33;;;2.53;;
71351;SDS011;59159;51.652;4.864;2023-02-05T00:26:20;6.90;;;2.30;;
71351;SDS011;59159;51.652;4.864;2023-02-05T00:28:46;7.03;;;2.78;;
71351;SDS011;59159;51.652;4.864;2023-02-05T00:31:16;6.43;;;2.53;;
71351;SDS011;59159;51.652;4.864;2023-02-05T00:33:42;6.38;;;2.83;;
71351;SDS011;59159;51.652;4.864;2023-02-05T00:36:08;7.15;;;2.47;;
71351;SDS011;59159;51.652;4.864;2023-02-05T00:38:34;6.30;;;2.40;;
71351;SDS011;59159;51.652;4.864;2023-02-05T00:41:01;6.80;;;2.37;;
71351;SDS011;59159;51.652;4.864;2023-02-05T00:43:27;6.55;;;2.15;;
71351;SDS011;59159;51.652;4.864;2023-02-05T00:45:53;6.63;;;2.70;;
71351;SDS011;59159;51.652;4.864;2023-02-05T00:48:19;6.77;;;2.70;;
71351;SDS011;59159;51.652;4.864;2023-02-05T00:50:46;6.22;;;2.63;;
71351;SDS011;59159;51.652;4.864;2023-02-05T00:53:12;7.45;;;2.75;;
71351;SDS011;59159;51.652;4.864;2023-02-05T00:55:38;6.97;;;2.70;;
71351;SDS011;59159;51.652;4.864;2023-02-05T00:58:04;6.70;;;2.35;;
71351;SDS011;59159;51.652;4.864;2023-02-05T01:00:30;6.85;;;2.88;;
71351;SDS011;59159;51.652;4.864;2023-02-05T01:02:57;5.95;;;2.45;;
71351;SDS011;59159;51.652;4.864;2023-02-05T01:05:23;7.77;;;2.80;;
71351;SDS011;59159;51.652;4.864;2023-02-05T01:07:50;6.88;;;2.40;;
71351;SDS011;59159;51.652;4.864;2023-02-05T01:10:16;6.78;;;2.45;;
71351;SDS011;59159;51.652;4.864;2023-02-05T01:12:42;6.97;;;2.07;;
71351;SDS011;59159;51.652;4.864;2023-02-05T01:15:08;7.00;;;2.60;;
71351;SDS011;59159;51.652;4.864;2023-02-05T01:17:34;5.68;;;2.40;;
71351;SDS011;59159;51.652;4.864;2023-02-05T01:20:00;6.17;;;2.47;;
71351;SDS011;59159;51.652;4.864;2023-02-05T01:22:26;5.82;;;2.40;;
71351;SDS011;59159;51.652;4.864;2023-02-05T01:24:52;7.32;;;2.50;;
71351;SDS011;59159;51.652;4.864;2023-02-05T01:27:18;6.85;;;2.55;;
71351;SDS011;59159;51.652;4.864;2023-02-05T01:29:44;8.00;;;2.50;;
71351;SDS011;59159;51.652;4.864;2023-02-05T01:32:10;5.70;;;2.38;;
71351;SDS011;59159;51.652;4.864;2023-02-05T01:34:36;7.68;;;3.03;;
71351;SDS011;59159;51.652;4.864;2023-02-05T01:37:02;6.80;;;2.60;;
71351;SDS011;59159;51.652;4.864;2023-02-05T01:39:28;6.68;;;2.58;;
71351;SDS011;59159;51.652;4.864;2023-02-05T01:41:54;6.13;;;2.13;;
71351;SDS011;59159;51.652;4.864;2023-02-05T01:44:21;7.37;;;2.70;;
71351;SDS011;59159;51.652;4.864;2023-02-05T01:46:49;7.00;;;2.53;;
71351;SDS011;59159;51.652;4.864;2023-02-05T01:49:18;7.47;;;2.60;;
71351;SDS011;59159;51.652;4.864;2023-02-05T01:51:46;6.28;;;2.35;;
71351;SDS011;59159;51.652;4.864;2023-02-05T01:54:12;5.80;;;2.20;;
71351;SDS011;59159;51.652;4.864;2023-02-05T01:56:39;8.13;;;2.20;;
71351;SDS011;59159;51.652;4.864;2023-02-05T01:59:20;6.45;;;2.55;;
71351;SDS011;59159;51.652;4.864;2023-02-05T02:01:48;6.27;;;2.27;;
71351;SDS011;59159;51.652;4.864;2023-02-05T02:04:17;7.82;;;2.20;;
71351;SDS011;59159;51.652;4.864;2023-02-05T02:06:45;6.32;;;2.38;;
71351;SDS011;59159;51.652;4.864;2023-02-05T02:09:11;5.77;;;2.20;;
71351;SDS011;59159;51.652;4.864;2023-02-05T02:11:37;6.70;;;1.90;;
71351;SDS011;59159;51.652;4.864;2023-02-05T02:14:05;6.43;;;2.17;;
71351;SDS011;59159;51.652;4.864;2023-02-05T02:16:34;6.15;;;2.35;;
71351;SDS011;59159;51.652;4.864;2023-02-05T02:19:01;6.40;;;2.10;;
71351;SDS011;59159;51.652;4.864;2023-02-05T02:26:47;7.10;;;2.10;;
71351;SDS011;59159;51.652;4.864;2023-02-05T02:29:20;6.63;;;2.40;;
71351;SDS011;59159;51.652;4.864;2023-02-05T02:31:53;5.90;;;1.90;;
71351;SDS011;59159;51.652;4.864;2023-02-05T02:34:40;5.77;;;2.00;;
71351;SDS011;59159;51.652;4.864;2023-02-05T02:37:09;6.43;;;2.30;;
71351;SDS011;59159;51.652;4.864;2023-02-05T02:39:41;5.43;;;2.10;;
71351;SDS011;59159;51.652;4.864;2023-02-05T02:42:17;5.15;;;1.80;;
71351;SDS011;59159;51.652;4.864;2023-02-05T02:47:20;5.55;;;2.00;;
71351;SDS011;59159;51.652;4.864;2023-02-05T02:49:58;5.10;;;1.60;;
71351;SDS011;59159;51.652;4.864;2023-02-05T02:52:25;4.90;;;1.40;;
71351;SDS011;59159;51.652;4.864;2023-02-05T02:54:53;5.90;;;1.50;;
71351;SDS011;59159;51.652;4.864;2023-02-05T02:57:21;5.22;;;1.42;;
71351;SDS011;59159;51.652;4.864;2023-02-05T02:59:47;8.33;;;1.80;;
71351;SDS011;59159;51.652;4.864;2023-02-05T03:02:14;5.28;;;1.83;;
71351;SDS011;59159;51.652;4.864;2023-02-05T03:04:44;5.00;;;1.65;;
71351;SDS011;59159;51.652;4.864;2023-02-05T03:07:19;5.25;;;1.48;;
71351;SDS011;59159;51.652;4.864;2023-02-05T03:10:02;5.27;;;1.70;;
71351;SDS011;59159;51.652;4.864;2023-02-05T03:12:32;4.95;;;1.30;;
71351;SDS011;59159;51.652;4.864;2023-02-05T03:14:58;4.63;;;1.33;;
71351;SDS011;59159;51.652;4.864;2023-02-05T03:17:24;6.00;;;2.07;;
71351;SDS011;59159;51.652;4.864;2023-02-05T03:20:02;4.70;;;1.40;;
71351;SDS011;59159;51.652;4.864;2023-02-05T03:22:30;5.22;;;1.40;;
71351;SDS011;59159;51.652;4.864;2023-02-05T03:24:57;3.90;;;1.10;;
71351;SDS011;59159;51.652;4.864;2023-02-05T03:27:23;4.38;;;1.20;;
71351;SDS011;59159;51.652;4.864;2023-02-05T03:29:49;4.55;;;1.30;;
71351;SDS011;59159;51.652;4.864;2023-02-05T03:45:19;2.92;;;0.90;;
71351;SDS011;59159;51.652;4.864;2023-02-05T03:52:56;4.75;;;1.00;;
71351;SDS011;59159;51.652;4.864;2023-02-05T03:55:22;4.10;;;1.00;;
71351;SDS011;59159;51.652;4.864;2023-02-05T03:57:58;4.43;;;1.20;;
71351;SDS011;59159;51.652;4.864;2023-02-05T04:00:25;3.73;;;1.10;;
71351;SDS011;59159;51.652;4.864;2023-02-05T04:02:52;4.32;;;1.25;;
71351;SDS011;59159;51.652;4.864;2023-02-05T04:05:18;3.60;;;0.95;;
71351;SDS011;59159;51.652;4.864;2023-02-05T04:07:47;3.43;;;0.90;;
71351;SDS011;59159;51.652;4.864;2023-02-05T04:10:12;3.95;;;0.90;;
71351;SDS011;59159;51.652;4.864;2023-02-05T04:12:38;4.93;;;1.15;;
71351;SDS011;59159;51.652;4.864;2023-02-05T04:15:05;4.50;;;1.07;;
71351;SDS011;59159;51.652;4.864;2023-02-05T04:17:33;3.30;;;1.10;;
71351;SDS011;59159;51.652;4.864;2023-02-05T04:19:59;3.25;;;1.10;;
71351;SDS011;59159;51.652;4.864;2023-02-05T04:22:25;3.83;;;0.90;;
71351;SDS011;59159;51.652;4.864;2023-02-05T04:24:51;3.40;;;0.87;;
71351;SDS011;59159;51.652;4.864;2023-02-05T04:27:17;2.42;;;0.70;;
71351;SDS011;59159;51.652;4.864;2023-02-05T04:29:42;3.33;;;0.90;;
71351;SDS011;59159;51.652;4.864;2023-02-05T04:32:08;3.57;;;1.10;;
71351;SDS011;59159;51.652;4.864;2023-02-05T04:34:34;3.50;;;0.90;;
71351;SDS011;59159;51.652;4.864;2023-02-05T04:37:01;3.63;;;0.90;;
71351;SDS011;59159;51.652;4.864;2023-02-05T04:39:27;3.17;;;1.00;;
71351;SDS011;59159;51.652;4.864;2023-02-05T04:41:53;3.50;;;1.08;;
71351;SDS011;59159;51.652;4.864;2023-02-05T04:44:20;3.70;;;1.08;;
71351;SDS011;59159;51.652;4.864;2023-02-05T04:46:46;3.38;;;0.80;;
71351;SDS011;59159;51.652;4.864;2023-02-05T04:49:12;3.13;;;1.10;;
71351;SDS011;59159;51.652;4.864;2023-02-05T04:51:38;5.10;;;1.30;;
71351;SDS011;59159;51.652;4.864;2023-02-05T04:54:04;3.97;;;0.90;;
71351;SDS011;59159;51.652;4.864;2023-02-05T04:56:30;4.03;;;0.80;;
71351;SDS011;59159;51.652;4.864;2023-02-05T04:58:56;2.88;;;0.88;;
71351;SDS011;59159;51.652;4.864;2023-02-05T05:01:22;3.95;;;0.82;;
71351;SDS011;59159;51.652;4.864;2023-02-05T05:03:48;3.70;;;1.10;;
71351;SDS011;59159;51.652;4.864;2023-02-05T05:06:15;2.65;;;0.80;;
71351;SDS011;59159;51.652;4.864;2023-02-05T05:08:42;3.03;;;0.75;;
71351;SDS011;59159;51.652;4.864;2023-02-05T05:11:12;2.83;;;0.77;;
71351;SDS011;59159;51.652;4.864;2023-02-05T05:13:38;3.87;;;1.07;;
71351;SDS011;59159;51.652;4.864;2023-02-05T05:16:04;3.28;;;1.00;;
71351;SDS011;59159;51.652;4.864;2023-02-05T05:18:31;3.78;;;0.98;;
71351;SDS011;59159;51.652;4.864;2023-02-05T05:20:57;3.47;;;1.10;;
71351;SDS011;59159;51.652;4.864;2023-02-05T05:23:23;3.45;;;1.20;;
71351;SDS011;59159;51.652;4.864;2023-02-05T05:25:49;3.33;;;0.98;;
71351;SDS011;59159;51.652;4.864;2023-02-05T05:28:15;4.40;;;1.10;;
71351;SDS011;59159;51.652;4.864;2023-02-05T05:30:42;3.45;;;0.95;;
71351;SDS011;59159;51.652;4.864;2023-02-05T05:33:08;3.55;;;0.98;;
71351;SDS011;59159;51.652;4.864;2023-02-05T05:35:34;3.95;;;1.10;;
71351;SDS011;59159;51.652;4.864;2023-02-05T05:38:01;3.97;;;0.90;;
71351;SDS011;59159;51.652;4.864;2023-02-05T05:40:27;4.05;;;1.00;;
71351;SDS011;59159;51.652;4.864;2023-02-05T05:43:12;3.47;;;1.13;;
71351;SDS011;59159;51.652;4.864;2023-02-05T05:45:57;5.30;;;1.17;;
71351;SDS011;59159;51.652;4.864;2023-02-05T05:48:23;3.63;;;0.95;;
71351;SDS011;59159;51.652;4.864;2023-02-05T05:50:49;2.88;;;0.90;;
71351;SDS011;59159;51.652;4.864;2023-02-05T05:53:15;5.50;;;0.97;;
71351;SDS011;59159;51.652;4.864;2023-02-05T05:55:42;3.63;;;0.80;;
71351;SDS011;59159;51.652;4.864;2023-02-05T05:58:08;3.03;;;0.80;;
71351;SDS011;59159;51.652;4.864;2023-02-05T06:00:35;4.10;;;1.00;;
71351;SDS011;59159;51.652;4.864;2023-02-05T06:03:01;3.50;;;0.70;;
71351;SDS011;59159;51.652;4.864;2023-02-05T06:05:28;3.55;;;0.70;;
71351;SDS011;59159;51.652;4.864;2023-02-05T06:07:54;3.10;;;0.90;;
71351;SDS011;59159;51.652;4.864;2023-02-05T06:10:20;3.80;;;0.80;;
71351;SDS011;59159;51.652;4.864;2023-02-05T06:12:46;3.58;;;0.77;;
71351;SDS011;59159;51.652;4.864;2023-02-05T06:15:12;2.95;;;0.70;;
71351;SDS011;59159;51.652;4.864;2023-02-05T06:17:38;3.43;;;0.70;;
71351;SDS011;59159;51.652;4.864;2023-02-05T06:20:04;3.58;;;0.68;;
71351;SDS011;59159;51.652;4.864;2023-02-05T06:22:30;3.58;;;0.77;;
71351;SDS011;59159;51.652;4.864;2023-02-05T06:24:56;2.67;;;0.80;;
71351;SDS011;59159;51.652;4.864;2023-02-05T06:27:22;5.13;;;0.73;;
71351;SDS011;59159;51.652;4.864;2023-02-05T06:29:48;3.90;;;0.80;;
71351;SDS011;59159;51.652;4.864;2023-02-05T06:32:14;4.18;;;0.65;;
71351;SDS011;59159;51.652;4.864;2023-02-05T06:34:40;2.13;;;0.53;;
71351;SDS011;59159;51.652;4.864;2023-02-05T06:37:06;1.98;;;0.50;;
71351;SDS011;59159;51.652;4.864;2023-02-05T06:39:33;3.60;;;0.93;;
71351;SDS011;59159;51.652;4.864;2023-02-05T06:41:59;3.50;;;0.50;;
71351;SDS011;59159;51.652;4.864;2023-02-05T06:44:25;2.30;;;0.68;;
71351;SDS011;59159;51.652;4.864;2023-02-05T06:46:52;2.25;;;0.55;;
71351;SDS011;59159;51.652;4.864;2023-02-05T06:49:17;3.05;;;0.60;;
71351;SDS011;59159;51.652;4.864;2023-02-05T06:51:43;3.33;;;0.70;;
71351;SDS011;59159;51.652;4.864;2023-02-05T06:54:09;2.35;;;0.50;;
71351;SDS011;59159;51.652;4.864;2023-02-05T06:56:35;3.92;;;0.63;;
71351;SDS011;59159;51.652;4.864;2023-02-05T06:59:02;3.57;;;0.70;;
71351;SDS011;59159;51.652;4.864;2023-02-05T07:01:28;3.05;;;0.70;;
71351;SDS011;59159;51.652;4.864;2023-02-05T07:03:54;2.13;;;0.60;;
71351;SDS011;59159;51.652;4.864;2023-02-05T07:06:23;3.53;;;0.80;;
71351;SDS011;59159;51.652;4.864;2023-02-05T07:08:49;2.90;;;0.60;;
71351;SDS011;59159;51.652;4.864;2023-02-05T07:11:16;2.53;;;0.60;;
71351;SDS011;59159;51.652;4.864;2023-02-05T07:13:42;3.58;;;0.60;;
71351;SDS011;59159;51.652;4.864;2023-02-05T07:16:07;3.97;;;0.70;;
71351;SDS011;59159;51.652;4.864;2023-02-05T07:18:34;3.03;;;0.63;;
71351;SDS011;59159;51.652;4.864;2023-02-05T07:21:03;3.88;;;0.70;;
71351;SDS011;59159;51.652;4.864;2023-02-05T07:23:30;2.83;;;0.70;;
71351;SDS011;59159;51.652;4.864;2023-02-05T07:25:56;3.42;;;0.73;;
71351;SDS011;59159;51.652;4.864;2023-02-05T07:28:22;3.70;;;0.70;;
71351;SDS011;59159;51.652;4.864;2023-02-05T07:30:48;3.43;;;0.90;;
71351;SDS011;59159;51.652;4.864;2023-02-05T07:33:14;6.07;;;1.35;;
71351;SDS011;59159;51.652;4.864;2023-02-05T07:35:41;12.52;;;2.28;;
71351;SDS011;59159;51.652;4.864;2023-02-05T07:38:07;15.57;;;2.05;;
71351;SDS011;59159;51.652;4.864;2023-02-05T07:40:35;11.73;;;2.70;;
71351;SDS011;59159;51.652;4.864;2023-02-05T07:43:01;9.30;;;1.95;;
71351;SDS011;59159;51.652;4.864;2023-02-05T07:45:27;7.78;;;1.60;;
71351;SDS011;59159;51.652;4.864;2023-02-05T07:47:53;7.10;;;1.40;;
71351;SDS011;59159;51.652;4.864;2023-02-05T07:50:19;8.55;;;1.55;;
71351;SDS011;59159;51.652;4.864;2023-02-05T07:52:45;6.78;;;1.33;;
71351;SDS011;59159;51.652;4.864;2023-02-05T07:55:11;6.00;;;1.40;;
71351;SDS011;59159;51.652;4.864;2023-02-05T07:57:37;6.60;;;1.30;;
71351;SDS011;59159;51.652;4.864;2023-02-05T08:00:03;6.10;;;1.30;;
71351;SDS011;59159;51.652;4.864;2023-02-05T08:02:29;6.90;;;1.42;;
71351;SDS011;59159;51.652;4.864;2023-02-05T08:04:56;6.13;;;1.33;;
71351;SDS011;59159;51.652;4.864;2023-02-05T08:07:22;8.77;;;1.73;;
71351;SDS011;59159;51.652;4.864;2023-02-05T08:09:48;6.88;;;1.23;;
71351;SDS011;59159;51.652;4.864;2023-02-05T08:12:14;6.97;;;1.20;;
71351;SDS011;59159;51.652;4.864;2023-02-05T08:14:40;8.63;;;1.25;;
71351;SDS011;59159;51.652;4.864;2023-02-05T08:17:06;5.20;;;1.23;;
71351;SDS011;59159;51.652;4.864;2023-02-05T08:19:32;6.30;;;1.23;;
71351;SDS011;59159;51.652;4.864;2023-02-05T08:21:58;8.00;;;1.13;;
71351;SDS011;59159;51.652;4.864;2023-02-05T08:24:24;4.95;;;0.93;;
71351;SDS011;59159;51.652;4.864;2023-02-05T08:26:50;8.57;;;1.40;;
71351;SDS011;59159;51.652;4.864;2023-02-05T08:29:16;4.80;;;1.10;;
71351;SDS011;59159;51.652;4.864;2023-02-05T08:31:42;6.43;;;1.02;;
71351;SDS011;59159;51.652;4.864;2023-02-05T08:34:08;8.07;;;1.30;;
71351;SDS011;59159;51.652;4.864;2023-02-05T08:36:34;5.83;;;1.10;;
71351;SDS011;59159;51.652;4.864;2023-02-05T08:39:00;4.80;;;0.88;;
71351;SDS011;59159;51.652;4.864;2023-02-05T08:41:26;5.80;;;1.00;;
71351;SDS011;59159;51.652;4.864;2023-02-05T08:43:52;7.53;;;1.13;;
71351;SDS011;59159;51.652;4.864;2023-02-05T08:46:20;7.13;;;1.00;;
71351;SDS011;59159;51.652;4.864;2023-02-05T08:48:48;6.28;;;1.13;;
71351;SDS011;59159;51.652;4.864;2023-02-05T08:51:15;8.32;;;1.58;;
71351;SDS011;59159;51.652;4.864;2023-02-05T08:53:41;4.53;;;1.47;;
71351;SDS011;59159;51.652;4.864;2023-02-05T08:56:07;7.13;;;1.17;;
71351;SDS011;59159;51.652;4.864;2023-02-05T08:58:38;13.38;;;1.60;;
71351;SDS011;59159;51.652;4.864;2023-02-05T09:01:08;12.10;;;1.97;;
71351;SDS011;59159;51.652;4.864;2023-02-05T09:03:34;17.35;;;1.60;;
71351;SDS011;59159;51.652;4.864;2023-02-05T09:06:03;8.38;;;1.13;;
71351;SDS011;59159;51.652;4.864;2023-02-05T09:08:29;5.93;;;1.40;;
71351;SDS011;59159;51.652;4.864;2023-02-05T09:10:55;6.45;;;1.10;;
71351;SDS011;59159;51.652;4.864;2023-02-05T09:13:21;5.63;;;0.93;;
71351;SDS011;59159;51.652;4.864;2023-02-05T09:15:48;6.97;;;1.30;;
71351;SDS011;59159;51.652;4.864;2023-02-05T09:18:14;7.30;;;1.10;;
71351;SDS011;59159;51.652;4.864;2023-02-05T09:20:44;6.95;;;1.00;;
71351;SDS011;59159;51.652;4.864;2023-02-05T09:23:11;4.72;;;0.80;;
71351;SDS011;59159;51.652;4.864;2023-02-05T09:25:38;9.07;;;1.60;;
71351;SDS011;59159;51.652;4.864;2023-02-05T09:28:04;6.07;;;1.00;;
71351;SDS011;59159;51.652;4.864;2023-02-05T09:30:33;6.05;;;1.27;;
71351;SDS011;59159;51.652;4.864;2023-02-05T09:32:59;7.43;;;1.37;;
71351;SDS011;59159;51.652;4.864;2023-02-05T09:35:25;7.78;;;1.00;;
71351;SDS011;59159;51.652;4.864;2023-02-05T09:37:51;5.88;;;1.40;;
71351;SDS011;59159;51.652;4.864;2023-02-05T09:40:19;5.80;;;1.10;;
71351;SDS011;59159;51.652;4.864;2023-02-05T09:42:54;8.90;;;0.90;;
71351;SDS011;59159;51.652;4.864;2023-02-05T09:45:44;6.45;;;1.13;;
71351;SDS011;59159;51.652;4.864;2023-02-05T09:50:46;6.27;;;1.10;;
71351;SDS011;59159;51.652;4.864;2023-02-05T09:53:14;7.47;;;1.23;;
71351;SDS011;59159;51.652;4.864;2023-02-05T09:55:42;5.50;;;1.00;;
71351;SDS011;59159;51.652;4.864;2023-02-05T09:58:28;5.93;;;0.90;;
71351;SDS011;59159;51.652;4.864;2023-02-05T10:01:03;6.80;;;1.05;;
71351;SDS011;59159;51.652;4.864;2023-02-05T10:03:44;4.35;;;1.00;;
71351;SDS011;59159;51.652;4.864;2023-02-05T10:11:33;7.00;;;1.50;;
71351;SDS011;59159;51.652;4.864;2023-02-05T10:17:02;7.60;;;1.03;;
71351;SDS011;59159;51.652;4.864;2023-02-05T10:22:22;8.07;;;1.30;;
71351;SDS011;59159;51.652;4.864;2023-02-05T10:30:12;7.32;;;1.23;;
71351;SDS011;59159;51.652;4.864;2023-02-05T10:35:18;7.43;;;1.07;;
71351;SDS011;59159;51.652;4.864;2023-02-05T10:37:50;9.80;;;1.55;;
71351;SDS011;59159;51.652;4.864;2023-02-05T10:40:17;9.57;;;1.83;;
71351;SDS011;59159;51.652;4.864;2023-02-05T10:42:45;8.50;;;3.20;;
71351;SDS011;59159;51.652;4.864;2023-02-05T10:45:19;10.93;;;3.17;;
71351;SDS011;59159;51.652;4.864;2023-02-05T10:47:52;10.45;;;3.72;;
71351;SDS011;59159;51.652;4.864;2023-02-05T10:52:48;9.57;;;2.47;;
71351;SDS011;59159;51.652;4.864;2023-02-05T10:55:14;12.48;;;2.88;;
71351;SDS011;59159;51.652;4.864;2023-02-05T10:57:40;8.07;;;2.22;;
71351;SDS011;59159;51.652;4.864;2023-02-05T11:00:13;8.40;;;2.10;;
71351;SDS011;59159;51.652;4.864;2023-02-05T11:02:41;10.10;;;2.90;;
71351;SDS011;59159;51.652;4.864;2023-02-05T11:07:52;8.73;;;2.00;;
71351;SDS011;59159;51.652;4.864;2023-02-05T11:12:46;8.50;;;2.65;;
71351;SDS011;59159;51.652;4.864;2023-02-05T11:15:21;11.80;;;2.53;;
71351;SDS011;59159;51.652;4.864;2023-02-05T11:17:55;8.65;;;1.80;;
71351;SDS011;59159;51.652;4.864;2023-02-05T11:20:37;9.95;;;2.70;;
71351;SDS011;59159;51.652;4.864;2023-02-05T11:23:08;6.50;;;1.58;;
71351;SDS011;59159;51.652;4.864;2023-02-05T11:25:47;8.90;;;2.23;;
71351;SDS011;59159;51.652;4.864;2023-02-05T11:28:18;10.52;;;2.13;;
71351;SDS011;59159;51.652;4.864;2023-02-05T11:30:44;8.20;;;1.70;;
71351;SDS011;59159;51.652;4.864;2023-02-05T11:35:39;8.77;;;2.10;;
71351;SDS011;59159;51.652;4.864;2023-02-05T11:38:16;7.22;;;1.60;;
71351;SDS011;59159;51.652;4.864;2023-02-05T11:40:51;7.03;;;1.50;;
71351;SDS011;59159;51.652;4.864;2023-02-05T11:43:25;6.10;;;1.55;;
71351;SDS011;59159;51.652;4.864;2023-02-05T11:45:52;7.40;;;1.40;;
71351;SDS011;59159;51.652;4.864;2023-02-05T11:48:27;6.38;;;1.50;;
71351;SDS011;59159;51.652;4.864;2023-02-05T11:50:56;6.00;;;1.33;;
71351;SDS011;59159;51.652;4.864;2023-02-05T11:53:22;7.63;;;1.50;;
71351;SDS011;59159;51.652;4.864;2023-02-05T11:55:56;8.10;;;1.90;;
71351;SDS011;59159;51.652;4.864;2023-02-05T11:58:26;7.17;;;1.60;;
71351;SDS011;59159;51.652;4.864;2023-02-05T12:00:56;8.73;;;1.40;;
71351;SDS011;59159;51.652;4.864;2023-02-05T12:03:24;7.20;;;1.95;;
71351;SDS011;59159;51.652;4.864;2023-02-05T12:05:53;7.00;;;1.53;;
71351;SDS011;59159;51.652;4.864;2023-02-05T12:17:11;6.10;;;1.30;;
71351;SDS011;59159;51.652;4.864;2023-02-05T12:24:53;7.00;;;1.63;;
71351;SDS011;59159;51.652;4.864;2023-02-05T12:27:36;10.15;;;1.80;;
71351;SDS011;59159;51.652;4.864;2023-02-05T12:32:55;5.90;;;1.10;;
71351;SDS011;59159;51.652;4.864;2023-02-05T12:40:55;6.75;;;1.38;;
71351;SDS011;59159;51.652;4.864;2023-02-05T12:43:39;5.37;;;1.03;;
71351;SDS011;59159;51.652;4.864;2023-02-05T12:46:32;9.57;;;1.70;;
71351;SDS011;59159;51.652;4.864;2023-02-05T12:59:18;6.43;;;1.40;;
71351;SDS011;59159;51.652;4.864;2023-02-05T13:01:50;6.43;;;1.30;;
71351;SDS011;59159;51.652;4.864;2023-02-05T13:04:29;6.90;;;1.20;;
71351;SDS011;59159;51.652;4.864;2023-02-05T13:06:58;12.18;;;1.60;;
71351;SDS011;59159;51.652;4.864;2023-02-05T13:09:30;8.60;;;1.47;;
71351;SDS011;59159;51.652;4.864;2023-02-05T13:12:01;7.70;;;1.40;;
71351;SDS011;59159;51.652;4.864;2023-02-05T13:17:03;6.17;;;1.20;;
71351;SDS011;59159;51.652;4.864;2023-02-05T13:19:36;6.43;;;1.27;;
71351;SDS011;59159;51.652;4.864;2023-02-05T13:24:57;5.83;;;1.27;;
71351;SDS011;59159;51.652;4.864;2023-02-05T13:27:47;8.23;;;1.40;;
71351;SDS011;59159;51.652;4.864;2023-02-05T13:30:35;9.20;;;1.60;;
71351;SDS011;59159;51.652;4.864;2023-02-05T13:33:03;7.93;;;2.00;;
71351;SDS011;59159;51.652;4.864;2023-02-05T13:35:30;7.50;;;1.30;;
71351;SDS011;59159;51.652;4.864;2023-02-05T13:43:25;6.33;;;1.97;;
71351;SDS011;59159;51.652;4.864;2023-02-05T14:01:24;7.43;;;1.10;;
71351;SDS011;59159;51.652;4.864;2023-02-05T14:06:22;7.53;;;1.58;;
71351;SDS011;59159;51.652;4.864;2023-02-05T14:09:37;6.23;;;1.37;;
71351;SDS011;59159;51.652;4.864;2023-02-05T14:11:53;9.02;;;1.75;;
71351;SDS011;59159;51.652;4.864;2023-02-05T14:14:24;7.57;;;1.20;;
71351;SDS011;59159;51.652;4.864;2023-02-05T14:16:51;5.90;;;1.30;;
71351;SDS011;59159;51.652;4.864;2023-02-05T14:21:56;8.30;;;1.27;;
71351;SDS011;59159;51.652;4.864;2023-02-05T14:24:27;5.40;;;1.00;;
71351;SDS011;59159;51.652;4.864;2023-02-05T14:26:54;8.73;;;1.57;;
71351;SDS011;59159;51.652;4.864;2023-02-05T14:34:58;5.43;;;1.30;;
71351;SDS011;59159;51.652;4.864;2023-02-05T14:37:27;5.60;;;1.10;;
71351;SDS011;59159;51.652;4.864;2023-02-05T14:39:54;7.72;;;1.02;;
71351;SDS011;59159;51.652;4.864;2023-02-05T14:42:21;7.23;;;1.30;;
71351;SDS011;59159;51.652;4.864;2023-02-05T14:44:55;7.05;;;1.17;;
71351;SDS011;59159;51.652;4.864;2023-02-05T14:47:24;8.25;;;1.30;;
71351;SDS011;59159;51.652;4.864;2023-02-05T14:49:51;7.93;;;1.52;;
71351;SDS011;59159;51.652;4.864;2023-02-05T14:52:32;5.87;;;1.07;;
71351;SDS011;59159;51.652;4.864;2023-02-05T14:55:00;5.45;;;1.27;;
71351;SDS011;59159;51.652;4.864;2023-02-05T14:59:59;6.27;;;1.40;;
71351;SDS011;59159;51.652;4.864;2023-02-05T15:08:00;5.67;;;1.17;;
71351;SDS011;59159;51.652;4.864;2023-02-05T15:10:33;5.90;;;1.20;;
71351;SDS011;59159;51.652;4.864;2023-02-05T15:13:02;7.18;;;1.45;;
71351;SDS011;59159;51.652;4.864;2023-02-05T15:15:34;5.35;;;1.20;;
71351;SDS011;59159;51.652;4.864;2023-02-05T15:18:12;7.57;;;1.53;;
71351;SDS011;59159;51.652;4.864;2023-02-05T15:20:39;5.40;;;1.02;;
71351;SDS011;59159;51.652;4.864;2023-02-05T15:23:12;5.13;;;1.05;;
71351;SDS011;59159;51.652;4.864;2023-02-05T15:25:40;7.97;;;1.50;;
71351;SDS011;59159;51.652;4.864;2023-02-05T15:28:12;5.78;;;0.93;;
71351;SDS011;59159;51.652;4.864;2023-02-05T15:30:50;8.57;;;1.20;;
71351;SDS011;59159;51.652;4.864;2023-02-05T15:33:28;7.40;;;1.23;;
71351;SDS011;59159;51.652;4.864;2023-02-05T15:35:56;6.35;;;1.30;;
71351;SDS011;59159;51.652;4.864;2023-02-05T15:38:34;4.88;;;1.17;;
71351;SDS011;59159;51.652;4.864;2023-02-05T15:41:08;5.78;;;1.15;;
71351;SDS011;59159;51.652;4.864;2023-02-05T15:43:36;5.53;;;1.37;;
71351;SDS011;59159;51.652;4.864;2023-02-05T15:46:03;4.90;;;1.10;;
71351;SDS011;59159;51.652;4.864;2023-02-05T15:48:30;6.80;;;0.98;;
71351;SDS011;59159;51.652;4.864;2023-02-05T15:50:58;8.40;;;1.40;;
71351;SDS011;59159;51.652;4.864;2023-02-05T15:55:54;7.00;;;1.30;;
71351;SDS011;59159;51.652;4.864;2023-02-05T15:58:22;4.90;;;1.03;;
71351;SDS011;59159;51.652;4.864;2023-02-05T16:00:49;5.50;;;0.90;;
71351;SDS011;59159;51.652;4.864;2023-02-05T16:03:29;7.25;;;1.20;;
71351;SDS011;59159;51.652;4.864;2023-02-05T16:05:56;4.97;;;1.42;;
71351;SDS011;59159;51.652;4.864;2023-02-05T16:08:22;6.87;;;1.43;;
71351;SDS011;59159;51.652;4.864;2023-02-05T16:10:53;7.32;;;1.17;;
71351;SDS011;59159;51.652;4.864;2023-02-05T16:13:21;8.35;;;1.10;;
71351;SDS011;59159;51.652;4.864;2023-02-05T16:15:50;6.20;;;1.07;;
71351;SDS011;59159;51.652;4.864;2023-02-05T16:20:51;5.78;;;1.20;;
71351;SDS011;59159;51.652;4.864;2023-02-05T16:23:29;6.70;;;1.00;;
71351;SDS011;59159;51.652;4.864;2023-02-05T16:26:17;5.28;;;1.48;;
71351;SDS011;59159;51.652;4.864;2023-02-05T16:28:46;4.70;;;0.90;;
71351;SDS011;59159;51.652;4.864;2023-02-05T16:31:14;6.20;;;1.10;;
71351;SDS011;59159;51.652;4.864;2023-02-05T16:36:33;5.95;;;1.30;;
71351;SDS011;59159;51.652;4.864;2023-02-05T16:39:02;8.55;;;1.70;;
71351;SDS011;59159;51.652;4.864;2023-02-05T16:41:36;7.53;;;1.50;;
71351;SDS011;59159;51.652;4.864;2023-02-05T16:44:05;8.75;;;1.55;;
71351;SDS011;59159;51.652;4.864;2023-02-05T16:46:32;7.10;;;1.30;;
71351;SDS011;59159;51.652;4.864;2023-02-05T16:49:03;4.33;;;0.90;;
71351;SDS011;59159;51.652;4.864;2023-02-05T16:56:45;6.25;;;1.10;;
71351;SDS011;59159;51.652;4.864;2023-02-05T16:59:22;6.80;;;1.30;;
71351;SDS011;59159;51.652;4.864;2023-02-05T17:01:48;5.15;;;1.35;;
71351;SDS011;59159;51.652;4.864;2023-02-05T17:04:19;5.72;;;1.20;;
71351;SDS011;59159;51.652;4.864;2023-02-05T17:06:50;8.33;;;1.47;;
71351;SDS011;59159;51.652;4.864;2023-02-05T17:09:33;7.80;;;1.15;;
71351;SDS011;59159;51.652;4.864;2023-02-05T17:14:51;6.27;;;1.17;;
71351;SDS011;59159;51.652;4.864;2023-02-05T17:17:18;6.82;;;1.67;;
71351;SDS011;59159;51.652;4.864;2023-02-05T17:20:00;9.50;;;1.58;;
71351;SDS011;59159;51.652;4.864;2023-02-05T17:22:26;7.40;;;1.35;;
71351;SDS011;59159;51.652;4.864;2023-02-05T17:24:53;6.87;;;1.20;;
71351;SDS011;59159;51.652;4.864;2023-02-05T17:29:45;8.10;;;1.17;;
71351;SDS011;59159;51.652;4.864;2023-02-05T17:32:13;7.40;;;1.20;;